• Join FlightAware (Why Join?)
  • Login
  • US Flag 
03:38PM EDT


 

Airport Tracker/Info


-or-


 

Live Flight TrackerFlight Track Log ✈ SWA22 ✈ 11-Apr-2013 ✈ KDAL - KAMA

Flight Track Log - Related Links

Times and Time Zones

All times are in EDT time to prevent confusion due to time zone crossing. See the SWA22 flight status page for this flight to view local times or setup timezone preferences in your user account.

Time Position Orientation Groundspeed Altitude Reporting Facility
EDT Latitude Longitude Course Direction KTS MPH feet Rate Location/Type
02:23PM 32.8667 -96.8833 301° West 183 211 2,200  Level Dallas / Fort Worth TRACON
02:25PM 32.9211 -96.9879 306° West  Level Estimated
02:25PM 32.9667 -96.9833 306° West 254 292 8,800  Level Dallas / Fort Worth TRACON
02:27PM 33.0772 -97.1086 316° Northwest 295 339 13,000 2,340 Climbing Fort Worth Center
02:28PM 33.0817 -97.2300 273° West 302 348 15,700 2,460 Climbing Fort Worth Center
02:29PM 33.1129 -97.3756 301° West  Level FlightAware Approximate
02:29PM 33.0817 -97.3342 270° West 335 386 18,000  Level Fort Worth Center
02:30PM 33.0839 -97.4656 271° West 359 413 20,100 1,680 Climbing Fort Worth Center
02:31PM 33.0881 -97.5819 272° West 386 444 21,400 1,800 Climbing Fort Worth Center
02:32PM 33.0919 -97.7183 272° West 403 464 23,800 2,100 Climbing Fort Worth Center
02:33PM 33.1269 -97.8500 288° West 392 451 25,700 1,560 Climbing Fort Worth Center
02:34PM 33.1642 -97.9619 292° West 397 457 27,000 1,860 Climbing Fort Worth Center
02:35PM 33.2031 -98.0936 289° West 402 463 29,500 1,920 Climbing Fort Worth Center
02:36PM 33.2381 -98.2008 291° West 390 449 30,900 1,200 Climbing Fort Worth Center
02:37PM 33.2789 -98.3303 291° West 384 442 32,000 1,140 Climbing Fort Worth Center
02:38PM 33.3114 -98.4400 290° West 389 448 33,200 1,200 Climbing Fort Worth Center
02:39PM 33.3500 -98.5672 290° West 384 442 34,500 1,140 Climbing Fort Worth Center
02:40PM 33.3883 -98.6822 292° West 384 442 35,500 720 Climbing Fort Worth Center
02:41PM 33.4247 -98.7997 290° West 379 436 36,000 240 Climbing Fort Worth Center
02:42PM 33.4589 -98.9172 289° West 379 436 36,000  Level Fort Worth Center
02:43PM 33.4950 -99.0350 290° West 379 436 36,000  Level Fort Worth Center
02:44PM 33.5311 -99.1503 291° West 374 430 36,000  Level Fort Worth Center
02:45PM 33.5836 -99.2611 300° West 374 430 36,000  Level Fort Worth Center
02:46PM 33.6511 -99.3547 311° West 374 430 36,000  Level Fort Worth Center
02:47PM 33.7164 -99.4511 309° West 380 437 36,000  Level Fort Worth Center
02:48PM 33.7836 -99.5428 311° West 380 437 36,000  Level Fort Worth Center
02:49PM 33.8489 -99.6419 308° West 374 430 36,000  Level Fort Worth Center
02:50PM 33.9158 -99.7361 311° West 374 430 36,000  Level Fort Worth Center
02:51PM 33.9808 -99.8306 310° West 374 430 36,000  Level Fort Worth Center
02:52PM 34.0458 -99.9275 309° West 374 430 36,000  Level Fort Worth Center
02:53PM 34.1106 -100.0197 310° West 374 430 36,000 -720 Level Fort Worth Center
02:55PM 34.2489 -100.2214 310° West 355 409 33,800 -1,020 Descending Albuquerque Center
02:57PM 34.3097 -100.3119 309° West 348 400 32,700 -1,680 Descending Albuquerque Center
02:58PM 34.3725 -100.4036 310° West 352 405 30,400 -2,280 Descending Albuquerque Center
02:59PM 34.4347 -100.4944 310° West 352 405 28,100 -2,460 Descending Albuquerque Center
03:00PM 34.5075 -100.6014 310° West 345 397 25,400 -2,040 Descending Albuquerque Center
03:01PM 34.5631 -100.6856 309° West 327 376 24,000 -1,620 Descending Albuquerque Center
03:02PM 34.6197 -100.7725 308° West 326 375 22,100 -2,400 Descending Albuquerque Center
03:03PM 34.6556 -100.8858 291° West 355 409 19,100 -2,640 Descending Albuquerque Center
03:04PM 34.6978 -100.9908 296° West 349 402 16,800 -2,040 Descending Albuquerque Center
03:05PM 34.7603 -101.0717 313° West 334 384 14,900 -1,440 Descending Albuquerque Center
03:06PM 34.8211 -101.1514 313° West 326 375 13,900 -1,560 Descending Albuquerque Center
03:07PM 34.8900 -101.2475 311° West 320 368 11,700 -1,920 Descending Albuquerque Center
03:08PM 34.9436 -101.3217 311° West 307 353 10,000 -1,620 Descending Albuquerque Center
03:09PM 34.9936 -101.3900 312° West 288 331 8,400 -1,620 Descending Albuquerque Center
03:10PM 35.0414 -101.4567 311° West 273 314 6,700 -1,500 Descending Albuquerque Center
03:11PM 35.0878 -101.5219 311° West 264 304 5,400 -600 Descending Albuquerque Center
03:12PM 35.1264 -101.5750 312° West 226 260 5,500 -180 Climbing Albuquerque Center
03:13PM 35.1608 -101.6197 313° West 198 228 5,100 -660 Descending Albuquerque Center
03:14PM 35.1972 -101.6606 317° Northwest 165 190 4,200 -780 Descending Albuquerque Center
03:15PM 35.2250 -101.6908 318° Northwest 146 168 3,600 -600 Descending Albuquerque Center
03:17PM 35.2167 -101.7000 321° Northwest  Level FlightAware Approximate